sensor_id;sensor_type;location;lat;lon;timestamp;pressure;altitude;pressure_sealevel;temperature;humidity
79415;BME280;68864;44.972;19.612;2024-03-17T00:01:38;101128.09;;;12.69;79.61
79415;BME280;68864;44.972;19.612;2024-03-17T00:04:07;101142.50;;;12.71;79.16
79415;BME280;68864;44.972;19.612;2024-03-17T00:06:36;101135.28;;;12.70;79.76
79415;BME280;68864;44.972;19.612;2024-03-17T00:09:01;101142.78;;;12.66;79.79
79415;BME280;68864;44.972;19.612;2024-03-17T00:11:32;101139.19;;;12.66;79.60
79415;BME280;68864;44.972;19.612;2024-03-17T00:13:58;101139.19;;;12.66;80.27
79415;BME280;68864;44.972;19.612;2024-03-17T00:16:25;101127.94;;;12.62;80.20
79415;BME280;68864;44.972;19.612;2024-03-17T00:18:51;101136.91;;;12.71;80.40
79415;BME280;68864;44.972;19.612;2024-03-17T00:21:17;101132.25;;;12.60;81.70
79415;BME280;68864;44.972;19.612;2024-03-17T00:23:47;101131.59;;;12.66;79.89
79415;BME280;68864;44.972;19.612;2024-03-17T00:26:14;101138.91;;;12.71;79.86
79415;BME280;68864;44.972;19.612;2024-03-17T00:28:41;101136.03;;;12.67;79.21
79415;BME280;68864;44.972;19.612;2024-03-17T00:31:08;101139.81;;;12.75;79.81
79415;BME280;68864;44.972;19.612;2024-03-17T00:33:35;101134.28;;;12.79;79.49
79415;BME280;68864;44.972;19.612;2024-03-17T00:36:02;101132.66;;;12.78;79.75
79415;BME280;68864;44.972;19.612;2024-03-17T00:38:29;101137.88;;;12.79;79.53
79415;BME280;68864;44.972;19.612;2024-03-17T00:40:57;101123.69;;;12.68;80.22
79415;BME280;68864;44.972;19.612;2024-03-17T00:43:23;101120.13;;;12.71;79.37
79415;BME280;68864;44.972;19.612;2024-03-17T00:45:51;101129.03;;;12.77;79.24
79415;BME280;68864;44.972;19.612;2024-03-17T00:48:17;101138.63;;;12.76;79.49
79415;BME280;68864;44.972;19.612;2024-03-17T00:50:45;101132.41;;;12.67;79.51
79415;BME280;68864;44.972;19.612;2024-03-17T00:53:11;101134.34;;;12.63;79.45
79415;BME280;68864;44.972;19.612;2024-03-17T00:55:37;101137.22;;;12.51;81.05
79415;BME280;68864;44.972;19.612;2024-03-17T00:58:05;101140.19;;;12.58;79.67
79415;BME280;68864;44.972;19.612;2024-03-17T01:00:33;101142.16;;;12.57;79.64
79415;BME280;68864;44.972;19.612;2024-03-17T01:02:59;101139.31;;;12.54;80.38
79415;BME280;68864;44.972;19.612;2024-03-17T01:05:26;101141.28;;;12.53;80.57
79415;BME280;68864;44.972;19.612;2024-03-17T01:07:52;101142.38;;;12.49;81.66
79415;BME280;68864;44.972;19.612;2024-03-17T01:10:19;101139.47;;;12.45;81.61
79415;BME280;68864;44.972;19.612;2024-03-17T01:12:45;101147.16;;;12.48;81.43
79415;BME280;68864;44.972;19.612;2024-03-17T01:15:13;101147.59;;;12.50;81.79
79415;BME280;68864;44.972;19.612;2024-03-17T01:17:39;101147.22;;;12.52;82.48
79415;BME280;68864;44.972;19.612;2024-03-17T01:20:07;101144.09;;;12.38;83.84
79415;BME280;68864;44.972;19.612;2024-03-17T01:22:33;101147.50;;;12.47;81.59
79415;BME280;68864;44.972;19.612;2024-03-17T01:25:00;101141.56;;;12.48;82.24
79415;BME280;68864;44.972;19.612;2024-03-17T01:27:26;101139.13;;;12.47;82.07
79415;BME280;68864;44.972;19.612;2024-03-17T01:29:53;101135.53;;;12.46;82.15
79415;BME280;68864;44.972;19.612;2024-03-17T01:32:21;101125.78;;;12.40;82.51
79415;BME280;68864;44.972;19.612;2024-03-17T01:34:48;101132.28;;;12.44;82.54
79415;BME280;68864;44.972;19.612;2024-03-17T01:37:14;101143.44;;;12.44;82.43
79415;BME280;68864;44.972;19.612;2024-03-17T01:39:41;101127.31;;;12.38;82.14
79415;BME280;68864;44.972;19.612;2024-03-17T01:42:07;101140.22;;;12.42;82.10
79415;BME280;68864;44.972;19.612;2024-03-17T01:44:34;101137.44;;;12.42;82.23
79415;BME280;68864;44.972;19.612;2024-03-17T01:47:00;101137.44;;;12.42;82.50
79415;BME280;68864;44.972;19.612;2024-03-17T01:49:30;101136.97;;;12.40;82.16
79415;BME280;68864;44.972;19.612;2024-03-17T01:51:57;101136.16;;;12.40;82.48
79415;BME280;68864;44.972;19.612;2024-03-17T01:54:24;101132.91;;;12.38;82.66
79415;BME280;68864;44.972;19.612;2024-03-17T01:56:50;101130.50;;;12.36;83.01
79415;BME280;68864;44.972;19.612;2024-03-17T01:59:17;101143.03;;;12.42;82.43
79415;BME280;68864;44.972;19.612;2024-03-17T02:01:43;101132.38;;;12.32;83.09
79415;BME280;68864;44.972;19.612;2024-03-17T02:04:11;101131.13;;;12.29;82.92
79415;BME280;68864;44.972;19.612;2024-03-17T02:06:38;101144.91;;;12.38;83.03
79415;BME280;68864;44.972;19.612;2024-03-17T02:09:07;101143.72;;;12.39;83.28
79415;BME280;68864;44.972;19.612;2024-03-17T02:11:35;101136.78;;;12.33;83.07
79415;BME280;68864;44.972;19.612;2024-03-17T02:14:02;101152.13;;;12.39;83.01
79415;BME280;68864;44.972;19.612;2024-03-17T02:16:28;101153.28;;;12.38;83.43
79415;BME280;68864;44.972;19.612;2024-03-17T02:18:55;101145.25;;;12.37;83.11
79415;BME280;68864;44.972;19.612;2024-03-17T02:21:22;101150.41;;;12.34;82.87
79415;BME280;68864;44.972;19.612;2024-03-17T02:23:51;101152.28;;;12.30;82.72
79415;BME280;68864;44.972;19.612;2024-03-17T02:26:18;101149.50;;;12.30;83.45
79415;BME280;68864;44.972;19.612;2024-03-17T02:28:46;101153.91;;;12.31;82.40
79415;BME280;68864;44.972;19.612;2024-03-17T02:31:13;101157.53;;;12.32;82.69
79415;BME280;68864;44.972;19.612;2024-03-17T02:33:41;101159.44;;;12.28;82.82
79415;BME280;68864;44.972;19.612;2024-03-17T02:36:08;101159.78;;;12.26;83.19
79415;BME280;68864;44.972;19.612;2024-03-17T02:38:37;101165.03;;;12.28;83.39
79415;BME280;68864;44.972;19.612;2024-03-17T02:41:24;101165.03;;;12.28;83.18
79415;BME280;68864;44.972;19.612;2024-03-17T02:43:51;101157.81;;;12.27;83.66
79415;BME280;68864;44.972;19.612;2024-03-17T02:46:18;101157.06;;;12.30;83.45
79415;BME280;68864;44.972;19.612;2024-03-17T02:48:47;101160.69;;;12.30;84.04
79415;BME280;68864;44.972;19.612;2024-03-17T02:51:15;101142.56;;;12.24;84.02
79415;BME280;68864;44.972;19.612;2024-03-17T02:53:43;101155.81;;;12.27;84.37
79415;BME280;68864;44.972;19.612;2024-03-17T02:56:11;101141.31;;;12.22;84.44
79415;BME280;68864;44.972;19.612;2024-03-17T02:58:39;101155.91;;;12.31;84.60
79415;BME280;68864;44.972;19.612;2024-03-17T03:01:07;101156.28;;;12.29;85.19
79415;BME280;68864;44.972;19.612;2024-03-17T03:03:35;101161.94;;;12.33;84.69
79415;BME280;68864;44.972;19.612;2024-03-17T03:06:03;101159.97;;;12.33;84.76
79415;BME280;68864;44.972;19.612;2024-03-17T03:08:34;101155.09;;;12.30;85.18
79415;BME280;68864;44.972;19.612;2024-03-17T03:11:03;101156.72;;;12.31;84.72
79415;BME280;68864;44.972;19.612;2024-03-17T03:13:30;101154.28;;;12.30;85.21
79415;BME280;68864;44.972;19.612;2024-03-17T03:15:59;101161.41;;;12.27;85.49
79415;BME280;68864;44.972;19.612;2024-03-17T03:18:26;101150.59;;;12.26;85.74
79415;BME280;68864;44.972;19.612;2024-03-17T03:20:53;101150.13;;;12.24;85.56
79415;BME280;68864;44.972;19.612;2024-03-17T03:23:21;101148.53;;;12.23;85.39
79415;BME280;68864;44.972;19.612;2024-03-17T03:25:54;101152.50;;;12.22;86.53
79415;BME280;68864;44.972;19.612;2024-03-17T03:28:21;101154.91;;;12.23;86.08
79415;BME280;68864;44.972;19.612;2024-03-17T03:30:49;101144.53;;;12.24;86.11
79415;BME280;68864;44.972;19.612;2024-03-17T03:33:18;101146.16;;;12.25;86.15
79415;BME280;68864;44.972;19.612;2024-03-17T03:35:45;101140.84;;;12.20;85.92
79415;BME280;68864;44.972;19.612;2024-03-17T03:38:12;101145.00;;;12.26;86.20
79415;BME280;68864;44.972;19.612;2024-03-17T03:40:40;101130.50;;;12.20;86.06
79415;BME280;68864;44.972;19.612;2024-03-17T03:43:07;101141.31;;;12.22;86.70
79415;BME280;68864;44.972;19.612;2024-03-17T03:45:35;101138.53;;;12.22;86.15
79415;BME280;68864;44.972;19.612;2024-03-17T03:48:02;101157.88;;;12.30;86.59
79415;BME280;68864;44.972;19.612;2024-03-17T03:50:31;101148.25;;;12.28;86.73
79415;BME280;68864;44.972;19.612;2024-03-17T03:52:58;101145.09;;;12.29;86.76
79415;BME280;68864;44.972;19.612;2024-03-17T03:55:26;101144.72;;;12.31;86.58
79415;BME280;68864;44.972;19.612;2024-03-17T03:57:53;101141.50;;;12.29;86.63
79415;BME280;68864;44.972;19.612;2024-03-17T04:00:21;101153.91;;;12.31;86.79
79415;BME280;68864;44.972;19.612;2024-03-17T04:02:50;101157.53;;;12.32;86.80
79415;BME280;68864;44.972;19.612;2024-03-17T04:05:18;101159.63;;;12.35;87.36
79415;BME280;68864;44.972;19.612;2024-03-17T04:07:47;101150.31;;;12.31;86.83
79415;BME280;68864;44.972;19.612;2024-03-17T04:10:15;101159.88;;;12.30;87.27
79415;BME280;68864;44.972;19.612;2024-03-17T04:12:44;101164.75;;;12.33;87.60
79415;BME280;68864;44.972;19.612;2024-03-17T04:15:11;101176.75;;;12.33;87.86
79415;BME280;68864;44.972;19.612;2024-03-17T04:17:39;101179.19;;;12.35;87.81
79415;BME280;68864;44.972;19.612;2024-03-17T04:20:08;101182.22;;;12.30;87.93
79415;BME280;68864;44.972;19.612;2024-03-17T04:22:38;101186.22;;;12.29;88.33
79415;BME280;68864;44.972;19.612;2024-03-17T04:25:07;101187.19;;;12.21;88.68
79415;BME280;68864;44.972;19.612;2024-03-17T04:27:35;101193.16;;;12.19;88.31
79415;BME280;68864;44.972;19.612;2024-03-17T04:30:02;101200.81;;;12.22;89.33
79415;BME280;68864;44.972;19.612;2024-03-17T04:32:31;101194.66;;;12.17;89.59
79415;BME280;68864;44.972;19.612;2024-03-17T04:34:58;101195.41;;;12.14;89.80
79415;BME280;68864;44.972;19.612;2024-03-17T04:37:25;101208.47;;;12.10;91.71
79415;BME280;68864;44.972;19.612;2024-03-17T04:39:53;101213.78;;;12.15;90.17
79415;BME280;68864;44.972;19.612;2024-03-17T04:42:24;101210.25;;;12.18;90.80
79415;BME280;68864;44.972;19.612;2024-03-17T04:44:51;101208.19;;;12.15;91.03
79415;BME280;68864;44.972;19.612;2024-03-17T04:47:18;101215.66;;;12.11;92.65
79415;BME280;68864;44.972;19.612;2024-03-17T04:49:45;101211.81;;;12.15;91.26
79415;BME280;68864;44.972;19.612;2024-03-17T04:52:12;101232.28;;;12.19;91.00
79415;BME280;68864;44.972;19.612;2024-03-17T04:54:40;101221.09;;;12.19;91.17
79415;BME280;68864;44.972;19.612;2024-03-17T04:57:08;101241.81;;;12.18;91.72
79415;BME280;68864;44.972;19.612;2024-03-17T04:59:37;101241.81;;;12.18;91.92
79415;BME280;68864;44.972;19.612;2024-03-17T05:02:05;101247.75;;;12.17;92.73
79415;BME280;68864;44.972;19.612;2024-03-17T05:04:33;101248.94;;;12.16;92.81
79415;BME280;68864;44.972;19.612;2024-03-17T05:07:00;101244.88;;;12.13;92.70
79415;BME280;68864;44.972;19.612;2024-03-17T05:09:26;101242.63;;;12.03;94.78
79415;BME280;68864;44.972;19.612;2024-03-17T05:11:54;101245.97;;;12.09;93.15
79415;BME280;68864;44.972;19.612;2024-03-17T05:14:21;101234.78;;;12.09;93.56
79415;BME280;68864;44.972;19.612;2024-03-17T05:16:50;101245.75;;;12.02;95.77
79415;BME280;68864;44.972;19.612;2024-03-17T05:19:17;101241.88;;;12.06;93.52
79415;BME280;68864;44.972;19.612;2024-03-17T05:21:44;101244.88;;;12.13;93.79
79415;BME280;68864;44.972;19.612;2024-03-17T05:24:11;101240.00;;;12.10;94.03
79415;BME280;68864;44.972;19.612;2024-03-17T05:26:39;101254.63;;;12.19;93.05
79415;BME280;68864;44.972;19.612;2024-03-17T05:29:07;101262.75;;;12.24;93.52
79415;BME280;68864;44.972;19.612;2024-03-17T05:31:34;101255.16;;;12.25;92.73
79415;BME280;68864;44.972;19.612;2024-03-17T05:34:03;101264.75;;;12.40;92.63
79415;BME280;68864;44.972;19.612;2024-03-17T05:36:30;101267.38;;;12.48;92.45
79415;BME280;68864;44.972;19.612;2024-03-17T05:38:59;101273.59;;;12.57;92.12
79415;BME280;68864;44.972;19.612;2024-03-17T05:41:26;101262.53;;;12.61;91.84
79415;BME280;68864;44.972;19.612;2024-03-17T05:43:53;101270.56;;;12.62;91.60
79415;BME280;68864;44.972;19.612;2024-03-17T05:46:24;101268.56;;;12.63;92.39
79415;BME280;68864;44.972;19.612;2024-03-17T05:48:52;101266.03;;;12.58;92.25
79415;BME280;68864;44.972;19.612;2024-03-17T05:51:21;101259.91;;;12.52;92.74
79415;BME280;68864;44.972;19.612;2024-03-17T05:53:51;101268.81;;;12.58;92.58
79415;BME280;68864;44.972;19.612;2024-03-17T05:56:18;101278.50;;;12.76;91.28
79415;BME280;68864;44.972;19.612;2024-03-17T05:58:45;101276.31;;;12.54;93.78
79415;BME280;68864;44.972;19.612;2024-03-17T06:01:12;101275.50;;;12.53;93.06
79415;BME280;68864;44.972;19.612;2024-03-17T06:03:39;101269.00;;;12.49;92.93
79415;BME280;68864;44.972;19.612;2024-03-17T06:06:07;101267.19;;;12.41;92.79
79415;BME280;68864;44.972;19.612;2024-03-17T06:08:37;101273.13;;;12.40;93.11
79415;BME280;68864;44.972;19.612;2024-03-17T06:11:04;101288.13;;;12.47;93.07
79415;BME280;68864;44.972;19.612;2024-03-17T06:13:32;101280.56;;;12.48;93.08
79415;BME280;68864;44.972;19.612;2024-03-17T06:15:59;101288.75;;;12.41;95.12
79415;BME280;68864;44.972;19.612;2024-03-17T06:18:27;101292.56;;;12.48;92.94
79415;BME280;68864;44.972;19.612;2024-03-17T06:20:54;101301.75;;;12.49;93.00
79415;BME280;68864;44.972;19.612;2024-03-17T06:23:24;101290.47;;;12.45;92.89
79415;BME280;68864;44.972;19.612;2024-03-17T06:25:54;101309.25;;;12.60;92.71
79415;BME280;68864;44.972;19.612;2024-03-17T06:28:22;101313.66;;;12.77;91.97
79415;BME280;68864;44.972;19.612;2024-03-17T06:30:56;101318.63;;;12.99;91.18
79415;BME280;68864;44.972;19.612;2024-03-17T06:33:26;101327.66;;;13.24;89.59
79415;BME280;68864;44.972;19.612;2024-03-17T06:35:54;101326.03;;;13.74;86.94
79415;BME280;68864;44.972;19.612;2024-03-17T06:38:21;101319.25;;;14.32;84.67
79415;BME280;68864;44.972;19.612;2024-03-17T06:40:49;101333.13;;;14.45;84.00
79415;BME280;68864;44.972;19.612;2024-03-17T06:43:18;101340.22;;;14.39;84.85
79415;BME280;68864;44.972;19.612;2024-03-17T06:45:54;101336.97;;;14.56;83.17
79415;BME280;68864;44.972;19.612;2024-03-17T06:48:22;101342.69;;;15.31;79.81
79415;BME280;68864;44.972;19.612;2024-03-17T06:50:49;101350.03;;;15.62;77.48
79415;BME280;68864;44.972;19.612;2024-03-17T06:53:17;101354.31;;;18.64;65.93
79415;BME280;68864;44.972;19.612;2024-03-17T06:55:44;101348.84;;;18.06;67.62
79415;BME280;68864;44.972;19.612;2024-03-17T06:58:20;101356.97;;;18.22;66.89
79415;BME280;68864;44.972;19.612;2024-03-17T07:00:53;101355.69;;;18.05;67.45
79415;BME280;68864;44.972;19.612;2024-03-17T07:03:20;101356.66;;;18.48;66.28
79415;BME280;68864;44.972;19.612;2024-03-17T07:05:50;101360.22;;;17.59;68.63
79415;BME280;68864;44.972;19.612;2024-03-17T07:08:18;101364.25;;;17.10;71.18
79415;BME280;68864;44.972;19.612;2024-03-17T07:10:55;101360.41;;;16.85;71.40
79415;BME280;68864;44.972;19.612;2024-03-17T07:13:24;101375.06;;;17.04;71.32
79415;BME280;68864;44.972;19.612;2024-03-17T07:15:51;101368.69;;;20.51;59.83
79415;BME280;68864;44.972;19.612;2024-03-17T07:18:18;101370.44;;;23.64;49.05
79415;BME280;68864;44.972;19.612;2024-03-17T07:20:45;101361.09;;;21.92;54.78
79415;BME280;68864;44.972;19.612;2024-03-17T07:23:13;101363.44;;;23.46;49.62
79415;BME280;68864;44.972;19.612;2024-03-17T07:25:41;101365.19;;;23.63;49.12
79415;BME280;68864;44.972;19.612;2024-03-17T07:28:07;101371.88;;;22.72;47.67
79415;BME280;68864;44.972;19.612;2024-03-17T07:30:36;101357.69;;;23.49;47.91
79415;BME280;68864;44.972;19.612;2024-03-17T07:33:03;101366.06;;;22.83;48.79
79415;BME280;68864;44.972;19.612;2024-03-17T07:35:30;101371.16;;;22.34;48.91
79415;BME280;68864;44.972;19.612;2024-03-17T07:37:57;101362.75;;;23.61;43.25
79415;BME280;68864;44.972;19.612;2024-03-17T07:40:24;101361.78;;;22.37;47.15
79415;BME280;68864;44.972;19.612;2024-03-17T07:42:51;101354.91;;;21.15;47.41
79415;BME280;68864;44.972;19.612;2024-03-17T07:45:19;101364.59;;;20.59;52.30
79415;BME280;68864;44.972;19.612;2024-03-17T07:47:50;101372.91;;;20.07;50.96
79415;BME280;68864;44.972;19.612;2024-03-17T07:50:17;101368.00;;;20.18;52.77
79415;BME280;68864;44.972;19.612;2024-03-17T07:52:44;101368.72;;;20.47;51.62
79415;BME280;68864;44.972;19.612;2024-03-17T07:55:11;101369.09;;;21.63;46.15
79415;BME280;68864;44.972;19.612;2024-03-17T07:57:38;101376.69;;;22.79;44.01
79415;BME280;68864;44.972;19.612;2024-03-17T08:00:07;101364.47;;;26.90;35.82
79415;BME280;68864;44.972;19.612;2024-03-17T08:02:41;101359.31;;;34.19;23.25
79415;BME280;68864;44.972;19.612;2024-03-17T08:05:10;101346.13;;;34.18;22.75
79415;BME280;68864;44.972;19.612;2024-03-17T08:07:37;101353.59;;;29.50;30.02
79415;BME280;68864;44.972;19.612;2024-03-17T08:10:05;101364.00;;;27.04;32.83
79415;BME280;68864;44.972;19.612;2024-03-17T08:12:32;101364.28;;;25.04;36.55
79415;BME280;68864;44.972;19.612;2024-03-17T08:14:59;101364.50;;;23.79;39.84
79415;BME280;68864;44.972;19.612;2024-03-17T08:17:26;101370.78;;;23.43;39.34
79415;BME280;68864;44.972;19.612;2024-03-17T08:19:53;101363.59;;;25.16;36.72
79415;BME280;68864;44.972;19.612;2024-03-17T08:22:21;101366.69;;;24.89;36.32
79415;BME280;68864;44.972;19.612;2024-03-17T08:24:49;101357.34;;;27.20;32.34
79415;BME280;68864;44.972;19.612;2024-03-17T08:27:16;101348.66;;;29.69;27.44
79415;BME280;68864;44.972;19.612;2024-03-17T08:29:43;101357.84;;;27.06;31.34
79415;BME280;68864;44.972;19.612;2024-03-17T08:32:10;101360.44;;;25.76;34.91
79415;BME280;68864;44.972;19.612;2024-03-17T08:34:37;101370.03;;;24.84;36.21
79415;BME280;68864;44.972;19.612;2024-03-17T08:37:04;101369.03;;;24.19;37.12
79415;BME280;68864;44.972;19.612;2024-03-17T08:39:32;101370.88;;;24.06;36.44
79415;BME280;68864;44.972;19.612;2024-03-17T08:41:59;101360.84;;;23.78;37.28
79415;BME280;68864;44.972;19.612;2024-03-17T08:44:26;101367.59;;;24.27;36.31
79415;BME280;68864;44.972;19.612;2024-03-17T08:46:54;101369.41;;;25.13;34.04
79415;BME280;68864;44.972;19.612;2024-03-17T08:49:22;101363.19;;;24.62;34.13
79415;BME280;68864;44.972;19.612;2024-03-17T08:51:49;101363.94;;;25.67;33.06
79415;BME280;68864;44.972;19.612;2024-03-17T08:54:16;101369.91;;;25.56;33.20
79415;BME280;68864;44.972;19.612;2024-03-17T08:56:45;101359.53;;;26.07;32.36
79415;BME280;68864;44.972;19.612;2024-03-17T08:59:12;101362.59;;;31.27;25.25
79415;BME280;68864;44.972;19.612;2024-03-17T09:01:39;101369.81;;;35.31;20.39
79415;BME280;68864;44.972;19.612;2024-03-17T09:04:06;101354.78;;;38.44;17.73
79415;BME280;68864;44.972;19.612;2024-03-17T09:06:33;101362.03;;;36.07;18.94
79415;BME280;68864;44.972;19.612;2024-03-17T09:09:01;101363.47;;;32.58;21.85
79415;BME280;68864;44.972;19.612;2024-03-17T09:11:28;101359.84;;;30.21;24.50
79415;BME280;68864;44.972;19.612;2024-03-17T09:13:57;101364.34;;;28.35;26.54
79415;BME280;68864;44.972;19.612;2024-03-17T09:16:25;101369.34;;;27.53;28.25
79415;BME280;68864;44.972;19.612;2024-03-17T09:18:54;101360.03;;;26.47;28.63
79415;BME280;68864;44.972;19.612;2024-03-17T09:21:21;101362.94;;;25.41;30.27
79415;BME280;68864;44.972;19.612;2024-03-17T09:23:48;101362.53;;;24.54;31.15
79415;BME280;68864;44.972;19.612;2024-03-17T09:26:15;101345.00;;;23.97;32.22
79415;BME280;68864;44.972;19.612;2024-03-17T09:28:43;101360.28;;;23.63;33.42
79415;BME280;68864;44.972;19.612;2024-03-17T09:31:12;101363.69;;;23.55;33.09
79415;BME280;68864;44.972;19.612;2024-03-17T09:33:39;101360.75;;;23.82;32.54
79415;BME280;68864;44.972;19.612;2024-03-17T09:36:07;101350.69;;;24.40;31.55
79415;BME280;68864;44.972;19.612;2024-03-17T09:38:37;101359.06;;;24.83;31.35
79415;BME280;68864;44.972;19.612;2024-03-17T09:41:06;101358.31;;;24.99;30.71
79415;BME280;68864;44.972;19.612;2024-03-17T09:43:34;101349.97;;;24.72;30.32
79415;BME280;68864;44.972;19.612;2024-03-17T09:46:02;101359.38;;;24.33;30.89
79415;BME280;68864;44.972;19.612;2024-03-17T09:48:31;101356.09;;;23.71;31.83
79415;BME280;68864;44.972;19.612;2024-03-17T09:51:00;101354.13;;;23.42;32.42
79415;BME280;68864;44.972;19.612;2024-03-17T09:53:28;101368.19;;;23.29;32.74
79415;BME280;68864;44.972;19.612;2024-03-17T09:55:58;101376.19;;;23.11;33.14
79415;BME280;68864;44.972;19.612;2024-03-17T09:58:25;101367.56;;;22.60;34.10
79415;BME280;68864;44.972;19.612;2024-03-17T10:00:53;101372.19;;;22.17;34.56
79415;BME280;68864;44.972;19.612;2024-03-17T10:03:40;101363.91;;;21.55;36.24
79415;BME280;68864;44.972;19.612;2024-03-17T10:06:08;101370.97;;;21.36;37.05
79415;BME280;68864;44.972;19.612;2024-03-17T10:08:41;101372.75;;;21.09;38.49
79415;BME280;68864;44.972;19.612;2024-03-17T10:11:08;101360.66;;;21.01;38.69
79415;BME280;68864;44.972;19.612;2024-03-17T10:13:36;101370.47;;;20.89;39.42
79415;BME280;68864;44.972;19.612;2024-03-17T10:16:04;101360.25;;;21.06;39.88
79415;BME280;68864;44.972;19.612;2024-03-17T10:18:31;101369.22;;;21.90;39.69
79415;BME280;68864;44.972;19.612;2024-03-17T10:21:00;101363.00;;;22.06;39.20
79415;BME280;68864;44.972;19.612;2024-03-17T10:23:27;101359.13;;;22.23;39.22
79415;BME280;68864;44.972;19.612;2024-03-17T10:25:55;101358.47;;;22.42;39.67
79415;BME280;68864;44.972;19.612;2024-03-17T10:28:22;101359.28;;;22.43;38.77
79415;BME280;68864;44.972;19.612;2024-03-17T10:30:59;101350.97;;;22.59;36.90
79415;BME280;68864;44.972;19.612;2024-03-17T10:33:26;101347.94;;;22.73;37.05
79415;BME280;68864;44.972;19.612;2024-03-17T10:36:02;101350.63;;;22.84;37.26
79415;BME280;68864;44.972;19.612;2024-03-17T10:38:31;101340.44;;;22.86;36.26
79415;BME280;68864;44.972;19.612;2024-03-17T10:41:00;101333.19;;;22.82;36.78
79415;BME280;68864;44.972;19.612;2024-03-17T10:43:28;101354.06;;;22.98;36.19
79415;BME280;68864;44.972;19.612;2024-03-17T10:45:58;101344.38;;;23.19;35.25
79415;BME280;68864;44.972;19.612;2024-03-17T10:48:30;101341.22;;;23.37;34.96
79415;BME280;68864;44.972;19.612;2024-03-17T10:51:01;101342.50;;;23.59;34.89
79415;BME280;68864;44.972;19.612;2024-03-17T10:53:29;101341.59;;;23.62;34.87
79415;BME280;68864;44.972;19.612;2024-03-17T10:56:04;101341.00;;;23.51;33.60
79415;BME280;68864;44.972;19.612;2024-03-17T10:58:35;101335.06;;;23.65;34.34
79415;BME280;68864;44.972;19.612;2024-03-17T11:01:03;101343.34;;;23.56;35.18
79415;BME280;68864;44.972;19.612;2024-03-17T11:03:32;101345.13;;;23.23;35.25
79415;BME280;68864;44.972;19.612;2024-03-17T11:06:03;101351.41;;;23.11;34.91
79415;BME280;68864;44.972;19.612;2024-03-17T11:08:31;101355.09;;;23.08;35.20
79415;BME280;68864;44.972;19.612;2024-03-17T11:10:59;101344.63;;;22.78;35.97
79415;BME280;68864;44.972;19.612;2024-03-17T11:13:27;101348.22;;;22.52;36.79
79415;BME280;68864;44.972;19.612;2024-03-17T11:15:56;101340.06;;;22.24;36.96
79415;BME280;68864;44.972;19.612;2024-03-17T11:18:39;101334.34;;;21.90;37.35
79415;BME280;68864;44.972;19.612;2024-03-17T11:21:24;101338.84;;;21.87;37.46
79415;BME280;68864;44.972;19.612;2024-03-17T11:24:00;101328.06;;;21.71;37.71
79415;BME280;68864;44.972;19.612;2024-03-17T11:26:32;101324.00;;;21.72;40.90
79415;BME280;68864;44.972;19.612;2024-03-17T11:29:01;101323.94;;;21.79;38.71
79415;BME280;68864;44.972;19.612;2024-03-17T11:31:43;101311.38;;;21.39;38.32
79415;BME280;68864;44.972;19.612;2024-03-17T11:34:28;101323.63;;;21.29;38.15
79415;BME280;68864;44.972;19.612;2024-03-17T11:36:57;101307.34;;;21.37;38.08
79415;BME280;68864;44.972;19.612;2024-03-17T11:39:51;101303.69;;;21.40;37.80
79415;BME280;68864;44.972;19.612;2024-03-17T11:42:21;101303.41;;;21.65;37.54
79415;BME280;68864;44.972;19.612;2024-03-17T11:44:59;101302.84;;;21.80;36.43
79415;BME280;68864;44.972;19.612;2024-03-17T11:47:43;101293.66;;;22.03;36.93
79415;BME280;68864;44.972;19.612;2024-03-17T11:50:12;101294.34;;;21.80;37.33
79415;BME280;68864;44.972;19.612;2024-03-17T11:52:40;101294.59;;;21.56;37.23
79415;BME280;68864;44.972;19.612;2024-03-17T11:55:16;101295.59;;;21.35;37.20
79415;BME280;68864;44.972;19.612;2024-03-17T11:57:43;101290.06;;;21.21;38.22
79415;BME280;68864;44.972;19.612;2024-03-17T12:00:19;101282.16;;;20.98;38.16
79415;BME280;68864;44.972;19.612;2024-03-17T12:02:48;101289.16;;;20.83;39.17
79415;BME280;68864;44.972;19.612;2024-03-17T12:05:15;101275.94;;;20.62;39.62
79415;BME280;68864;44.972;19.612;2024-03-17T12:07:43;101272.03;;;20.45;40.13
79415;BME280;68864;44.972;19.612;2024-03-17T12:10:11;101284.59;;;20.41;40.56
79415;BME280;68864;44.972;19.612;2024-03-17T12:12:39;101285.06;;;20.25;40.98
79415;BME280;68864;44.972;19.612;2024-03-17T12:15:17;101268.19;;;20.00;41.24
79415;BME280;68864;44.972;19.612;2024-03-17T12:17:43;101277.94;;;19.89;41.84
79415;BME280;68864;44.972;19.612;2024-03-17T12:20:20;101273.13;;;19.78;42.19
79415;BME280;68864;44.972;19.612;2024-03-17T12:22:48;101280.44;;;19.72;42.55
79415;BME280;68864;44.972;19.612;2024-03-17T12:25:17;101278.44;;;19.59;43.34
79415;BME280;68864;44.972;19.612;2024-03-17T12:27:45;101267.13;;;19.55;43.43
79415;BME280;68864;44.972;19.612;2024-03-17T12:30:14;101270.72;;;19.73;43.42
79415;BME280;68864;44.972;19.612;2024-03-17T12:32:41;101262.56;;;19.90;43.09
79415;BME280;68864;44.972;19.612;2024-03-17T12:35:13;101242.34;;;19.95;42.25
79415;BME280;68864;44.972;19.612;2024-03-17T12:37:39;101240.34;;;19.92;42.45
79415;BME280;68864;44.972;19.612;2024-03-17T12:40:09;101243.63;;;19.79;43.20
79415;BME280;68864;44.972;19.612;2024-03-17T12:42:47;101240.78;;;19.87;42.33
79415;BME280;68864;44.972;19.612;2024-03-17T12:45:19;101233.94;;;19.80;42.37
79415;BME280;68864;44.972;19.612;2024-03-17T12:47:47;101233.94;;;19.77;42.72